Time;durP1;ratioP1;P1;durP2;ratioP2;P2;SDS_P1;SDS_P2;PMS_P1;PMS_P2;Temp;Humidity;BMP_temperature;BMP_pressure;BME280_temperature;BME280_humidity;BME280_pressure;Samples;Min_cycle;Max_cycle;Signal;HPM_P1;HPM_P2
2022/10/26 00:00:07;;;;;;;7.13;5.90;;;;;;;17.67;69.07;95295.16;5114955;28;20447;-77
2022/10/26 00:02:34;;;;;;;12.47;6.67;;;;;;;17.66;69.18;95304.09;5061986;28;20902;-76
2022/10/26 00:05:00;;;;;;;6.20;5.60;;;;;;;17.65;70.12;95295.31;5114671;28;20479;-77
2022/10/26 00:07:29;;;;;;;11.77;6.20;;;;;;;17.64;69.58;95298.94;5114324;28;20451;-76
2022/10/26 00:09:55;;;;;;;14.67;6.30;;;;;;;17.64;69.28;95298.13;5114779;28;20453;-76
2022/10/26 00:12:24;;;;;;;13.23;6.23;;;;;;;17.65;69.30;95297.97;5114061;28;20454;-76
2022/10/26 00:14:51;;;;;;;8.83;5.20;;;;;;;17.69;69.43;95298.50;5114367;28;20439;-76
2022/10/26 00:17:18;;;;;;;18.50;6.60;;;;;;;17.75;69.16;95299.66;5114249;28;20446;-76
2022/10/26 00:19:45;;;;;;;6.23;5.47;;;;;;;17.76;69.02;95302.13;5078373;28;20434;-77
2022/10/26 00:22:11;;;;;;;14.13;6.27;;;;;;;17.76;68.54;95296.84;5114031;28;20482;-76
2022/10/26 00:24:38;;;;;;;14.33;6.00;;;;;;;17.67;68.18;95297.81;5078352;28;20461;-76
2022/10/26 00:27:05;;;;;;;12.80;7.03;;;;;;;17.61;67.76;95298.41;5061480;28;20449;-76
2022/10/26 00:29:33;;;;;;;18.23;6.03;;;;;;;17.50;67.83;95302.22;5114295;28;20439;-77
2022/10/26 00:32:00;;;;;;;18.03;7.60;;;;;;;17.41;67.36;95303.19;5078219;28;20446;-76
2022/10/26 00:34:27;;;;;;;14.90;6.90;;;;;;;17.28;67.31;95303.66;5061280;28;20439;-77
2022/10/26 00:36:57;;;;;;;9.10;5.90;;;;;;;17.20;67.85;95314.22;5077871;28;20987;-77
2022/10/26 00:39:23;;;;;;;9.23;5.83;;;;;;;17.06;67.87;95300.72;5113618;28;20861;-76
2022/10/26 00:41:50;;;;;;;23.23;6.57;;;;;;;16.93;67.93;95304.66;5113781;28;20889;-77
2022/10/26 00:44:57;;;;;;;13.63;5.90;;;;;;;16.85;68.52;95309.94;5113631;28;20503;-77
2022/10/26 00:47:33;;;;;;;11.27;6.63;;;;;;;16.76;68.06;95305.56;5113742;28;20535;-77
2022/10/26 00:50:06;;;;;;;10.97;6.03;;;;;;;16.70;68.73;95300.91;5113393;28;20457;-76
2022/10/26 00:52:33;;;;;;;17.77;7.93;;;;;;;16.62;68.55;95306.97;5060806;28;20473;-76
2022/10/26 00:55:01;;;;;;;12.00;6.13;;;;;;;16.50;68.99;95307.41;5113591;28;20941;-76
2022/10/26 00:57:28;;;;;;;11.90;6.67;;;;;;;16.42;69.46;95295.72;5113256;28;20813;-76
2022/10/26 00:59:57;;;;;;;14.40;6.83;;;;;;;16.38;69.25;95298.84;5113595;28;20449;-77
2022/10/26 01:02:24;;;;;;;12.60;6.53;;;;;;;16.33;69.89;95301.16;5113492;28;21062;-76
2022/10/26 01:04:53;;;;;;;16.30;7.20;;;;;;;16.26;69.48;95302.75;5113371;28;20464;-76
2022/10/26 01:07:21;;;;;;;12.00;6.93;;;;;;;16.19;70.10;95301.69;5113572;28;20472;-77
2022/10/26 01:09:48;;;;;;;12.90;5.80;;;;;;;16.10;70.34;95296.34;5113264;28;20435;-76
2022/10/26 01:12:15;;;;;;;15.00;5.93;;;;;;;16.08;70.57;95295.66;5113085;28;20441;-76
2022/10/26 01:14:42;;;;;;;8.43;5.77;;;;;;;16.04;69.82;95296.97;5113101;28;20488;-77
2022/10/26 01:17:28;;;;;;;10.67;5.87;;;;;;;16.02;70.77;95291.00;5113159;28;20439;-76
2022/10/26 01:20:28;;;;;;;8.50;7.20;;;;;;;15.98;70.49;95297.56;5112878;28;20536;-76
2022/10/26 01:23:02;;;;;;;13.87;6.30;;;;;;;15.91;70.80;95295.69;5112964;28;20488;-77
2022/10/26 01:25:44;;;;;;;20.63;6.40;;;;;;;15.88;70.92;95299.47;5078808;28;20945;-76
2022/10/26 01:28:32;;;;;;;14.67;6.53;;;;;;;15.79;71.16;95287.97;5112930;28;20489;-76
2022/10/26 01:31:02;;;;;;;12.60;5.40;;;;;;;15.78;71.14;95304.00;5112951;28;20553;-76
2022/10/26 01:33:38;;;;;;;25.23;7.43;;;;;;;15.71;71.80;95298.50;5112744;28;20445;-76
2022/10/26 01:36:12;;;;;;;13.03;7.70;;;;;;;15.67;71.90;95298.97;5113489;28;21020;-76
2022/10/26 01:38:52;;;;;;;13.33;5.67;;;;;;;15.63;72.38;95295.78;5112951;28;20846;-75
2022/10/26 01:41:26;;;;;;;24.23;5.47;;;;;;;15.58;72.51;95299.81;5113141;28;20577;-76
2022/10/26 01:43:58;;;;;;;20.67;7.13;;;;;;;15.61;72.18;95294.25;5112712;28;20456;-76
2022/10/26 01:46:28;;;;;;;18.67;5.70;;;;;;;15.61;72.20;95295.09;5112817;28;20447;-76
2022/10/26 01:48:59;;;;;;;13.03;6.37;;;;;;;15.58;72.38;95289.22;5112920;28;20448;-77
2022/10/26 01:51:27;;;;;;;14.43;7.03;;;;;;;15.55;72.15;95286.88;5112815;28;20443;-76
2022/10/26 01:53:54;;;;;;;15.30;8.70;;;;;;;15.49;72.12;95286.50;5112982;28;20512;-76
2022/10/26 01:56:23;;;;;;;16.83;5.60;;;;;;;15.48;72.23;95295.44;5111994;28;20475;-76
2022/10/26 01:59:26;;;;;;;14.87;6.20;;;;;;;15.41;72.79;95293.53;5112614;28;20507;-76
2022/10/26 02:02:23;;;;;;;15.13;5.93;;;;;;;15.38;72.56;95289.38;5049458;28;20481;-76
2022/10/26 02:05:08;;;;;;;11.33;5.10;;;;;;;15.37;72.44;95284.25;5049413;28;20517;-76
2022/10/26 02:07:41;;;;;;;10.70;6.00;;;;;;;15.28;72.69;95296.53;5049533;28;20455;-77
2022/10/26 02:10:18;;;;;;;10.10;6.33;;;;;;;15.25;73.46;95288.06;5049638;28;20450;-76
2022/10/26 02:12:53;;;;;;;10.77;6.67;;;;;;;15.17;73.51;95283.53;5049664;28;20437;-76
2022/10/26 02:15:25;;;;;;;15.27;6.63;;;;;;;15.16;74.34;95295.09;5049349;28;20441;-76
2022/10/26 02:17:57;;;;;;;20.27;7.00;;;;;;;15.12;73.97;95289.25;5049482;28;20867;-76
2022/10/26 02:20:32;;;;;;;13.30;8.40;;;;;;;15.11;74.18;95292.06;4999826;28;20440;-76
2022/10/26 02:23:04;;;;;;;8.23;6.17;;;;;;;15.08;74.61;95311.69;5049520;28;20595;-76
2022/10/26 02:25:34;;;;;;;19.13;5.97;;;;;;;15.04;74.77;95312.97;5049280;28;20500;-76
2022/10/26 02:28:05;;;;;;;10.90;5.70;;;;;;;14.96;75.21;95310.19;5049383;28;20450;-76
2022/10/26 02:30:34;;;;;;;10.00;6.13;;;;;;;14.93;75.57;95315.78;5049374;28;20449;-76
2022/10/26 02:33:01;;;;;;;9.90;6.70;;;;;;;14.91;75.58;95311.63;5049444;28;20453;-76
2022/10/26 02:35:33;;;;;;;14.40;5.77;;;;;;;14.78;76.44;95315.44;5049050;28;20460;-76
2022/10/26 02:38:03;;;;;;;14.80;7.10;;;;;;;14.46;79.72;95310.56;5060521;28;20446;-77
2022/10/26 02:40:30;;;;;;;10.93;6.83;;;;;;;14.51;79.32;95315.41;5112437;28;20455;-76
2022/10/26 02:43:02;;;;;;;14.97;8.37;;;;;;;14.41;80.25;95310.09;5112072;28;20544;-76
2022/10/26 02:45:34;;;;;;;11.87;8.73;;;;;;;14.37;81.29;95315.81;5112163;28;20460;-76
2022/10/26 02:48:01;;;;;;;15.03;8.73;;;;;;;14.36;81.16;95307.06;5112232;28;20470;-76
2022/10/26 02:50:38;;;;;;;14.00;9.77;;;;;;;14.42;81.27;95306.47;5111858;28;20496;-76
2022/10/26 02:53:15;;;;;;;17.03;9.13;;;;;;;14.45;80.93;95313.31;5112004;28;20474;-76
2022/10/26 02:55:48;;;;;;;18.03;9.03;;;;;;;14.48;80.15;95305.97;5112166;28;20943;-76
2022/10/26 02:58:19;;;;;;;13.33;7.43;;;;;;;14.49;79.79;95314.72;5112073;28;20442;-76
2022/10/26 03:00:46;;;;;;;16.43;9.10;;;;;;;14.41;79.33;95318.00;5111853;28;20447;-76
2022/10/26 03:03:14;;;;;;;11.60;6.73;;;;;;;14.42;78.93;95317.03;5111592;28;20486;-76
2022/10/26 03:05:43;;;;;;;11.47;7.00;;;;;;;14.45;78.71;95324.69;5042606;28;20435;-76
2022/10/26 03:08:10;;;;;;;13.47;6.20;;;;;;;14.45;78.05;95326.50;5113409;28;20480;-76
2022/10/26 03:10:41;;;;;;;16.93;7.20;;;;;;;14.39;77.87;95330.53;5115593;28;20444;-76
2022/10/26 03:13:09;;;;;;;14.43;6.53;;;;;;;14.42;78.15;95329.41;5115488;28;20538;-76
2022/10/26 03:15:35;;;;;;;13.13;5.90;;;;;;;14.43;77.76;95323.19;5112926;28;20461;-76
2022/10/26 03:18:02;;;;;;;13.97;5.90;;;;;;;14.44;77.68;95336.25;5064262;28;20923;-76
2022/10/26 03:20:30;;;;;;;16.03;6.30;;;;;;;14.46;77.48;95339.59;5108078;28;20492;-76
2022/10/26 03:22:58;;;;;;;39.63;7.30;;;;;;;14.48;77.23;95336.81;5115440;28;20482;-76
2022/10/26 03:25:25;;;;;;;11.90;6.77;;;;;;;14.48;77.17;95342.94;5115189;28;20439;-76
2022/10/26 03:27:57;;;;;;;8.77;6.30;;;;;;;14.49;76.94;95349.03;5114795;28;20458;-76
2022/10/26 03:30:24;;;;;;;11.83;6.07;;;;;;;14.47;76.87;95351.81;5115911;28;20443;-76
2022/10/26 03:32:51;;;;;;;15.33;6.00;;;;;;;14.44;76.70;95343.31;5115928;28;20508;-76
2022/10/26 03:35:18;;;;;;;12.67;6.07;;;;;;;14.44;76.68;95352.09;5116021;28;20450;-76
2022/10/26 03:37:45;;;;;;;15.13;7.63;;;;;;;14.43;77.03;95349.59;5115797;28;20446;-76
2022/10/26 03:40:13;;;;;;;14.60;6.10;;;;;;;14.39;76.95;95362.22;5115563;28;20435;-76
2022/10/26 03:42:40;;;;;;;18.10;5.80;;;;;;;14.38;76.95;95359.72;5115201;28;20479;-76
2022/10/26 03:45:09;;;;;;;16.33;6.67;;;;;;;14.35;77.10;95349.44;5115814;28;20443;-76
2022/10/26 03:47:42;;;;;;;10.57;5.57;;;;;;;14.38;77.15;95355.25;5115213;28;20842;-76
2022/10/26 03:50:10;;;;;;;11.73;5.70;;;;;;;14.31;78.13;95345.41;5062702;28;20450;-76
2022/10/26 03:52:36;;;;;;;9.70;5.63;;;;;;;14.29;77.37;95342.09;5078922;28;20471;-76
2022/10/26 03:55:03;;;;;;;18.50;6.17;;;;;;;14.25;77.01;95355.56;5114783;28;20439;-76
2022/10/26 03:57:31;;;;;;;8.10;6.00;;;;;;;14.19;77.75;95348.22;5114659;28;20454;-76
2022/10/26 03:59:58;;;;;;;7.60;5.50;;;;;;;14.20;77.76;95351.69;5115088;28;20843;-76
2022/10/26 04:02:25;;;;;;;8.50;6.10;;;;;;;14.13;78.03;95348.75;5114574;28;20483;-76
2022/10/26 04:04:52;;;;;;;10.77;6.10;;;;;;;14.13;78.17;95354.03;5114539;28;20439;-77
2022/10/26 04:07:18;;;;;;;16.23;6.80;;;;;;;14.13;78.20;95353.22;5114446;28;20438;-77
2022/10/26 04:09:45;;;;;;;13.00;6.40;;;;;;;14.14;78.25;95352.22;5114080;28;20454;-77
2022/10/26 04:12:12;;;;;;;8.50;5.80;;;;;;;14.16;78.36;95347.66;5114385;28;20447;-77
2022/10/26 04:14:40;;;;;;;8.77;6.33;;;;;;;14.16;78.22;95358.19;5114154;28;20504;-77
2022/10/26 04:17:07;;;;;;;6.93;6.07;;;;;;;14.14;78.10;95358.34;5062017;28;20435;-77
2022/10/26 04:19:34;;;;;;;9.00;6.77;;;;;;;14.16;79.08;95358.19;5113559;28;20443;-78
2022/10/26 04:22:00;;;;;;;15.00;6.20;;;;;;;14.22;80.33;95358.50;5114341;28;20799;-77
2022/10/26 04:24:27;;;;;;;14.20;6.53;;;;;;;14.20;80.47;95355.16;5114294;28;20922;-77
2022/10/26 04:26:54;;;;;;;13.43;6.40;;;;;;;14.11;79.75;95356.00;5114438;28;20502;-77
2022/10/26 04:29:21;;;;;;;16.63;7.00;;;;;;;14.15;80.96;95357.38;5114488;28;20490;-77
2022/10/26 04:31:49;;;;;;;14.53;6.50;;;;;;;14.17;79.44;95355.44;5114345;28;20462;-78
2022/10/26 04:34:15;;;;;;;15.80;5.80;;;;;;;14.15;80.33;95362.66;5113786;28;20453;-78
2022/10/26 04:36:42;;;;;;;13.27;6.93;;;;;;;14.30;90.43;95360.44;5113930;28;20932;-79
2022/10/26 04:39:09;;;;;;;12.17;7.30;;;;;;;14.33;88.68;95356.66;5114077;28;20512;-78
2022/10/26 04:41:36;;;;;;;12.83;8.53;;;;;;;14.39;89.50;95356.09;5113957;28;20503;-78
2022/10/26 04:44:02;;;;;;;14.43;7.70;;;;;;;14.36;86.64;95367.78;5114276;28;20631;-77
2022/10/26 04:46:29;;;;;;;19.27;7.40;;;;;;;14.30;82.49;95368.34;5114084;28;20447;-77
2022/10/26 04:48:57;;;;;;;11.93;5.90;;;;;;;14.21;80.64;95356.84;5111695;28;20835;-78
2022/10/26 04:51:24;;;;;;;8.20;6.50;;;;;;;14.20;80.36;95371.00;5108619;28;20496;-78
2022/10/26 04:53:54;;;;;;;14.17;6.60;;;;;;;14.15;79.80;95367.94;5112835;28;20949;-77
2022/10/26 04:56:20;;;;;;;18.90;6.33;;;;;;;14.11;79.46;95374.47;5112789;28;20451;-78
2022/10/26 04:58:47;;;;;;;7.23;5.80;;;;;;;14.11;78.81;95378.91;5093196;28;20444;-78
2022/10/26 05:01:14;;;;;;;11.10;6.30;;;;;;;14.11;79.94;95387.66;5099884;28;20447;-78
2022/10/26 05:03:41;;;;;;;14.70;6.57;;;;;;;14.09;78.95;95388.78;5113315;28;20483;-78
2022/10/26 05:06:09;;;;;;;12.33;6.57;;;;;;;14.06;79.12;95392.53;5113413;28;20439;-77
2022/10/26 05:08:35;;;;;;;16.50;6.73;;;;;;;14.06;79.81;95387.25;5113485;28;20513;-76
2022/10/26 05:11:02;;;;;;;12.00;6.30;;;;;;;14.23;79.74;95386.56;5113823;28;20506;-77
2022/10/26 05:13:29;;;;;;;9.37;6.27;;;;;;;14.58;78.67;95387.78;5107246;28;20488;-77
2022/10/26 05:15:56;;;;;;;10.43;6.70;;;;;;;14.95;76.27;95389.63;5109434;28;20440;-77
2022/10/26 05:18:22;;;;;;;15.10;6.50;;;;;;;15.35;74.53;95390.16;5103626;28;20447;-77
2022/10/26 05:20:52;;;;;;;12.80;6.67;;;;;;;15.80;72.70;95384.06;5113649;28;20451;-77
2022/10/26 05:23:21;;;;;;;24.97;7.13;;;;;;;16.26;70.48;95384.84;5102508;28;20533;-77
2022/10/26 05:25:48;;;;;;;20.27;6.17;;;;;;;16.71;68.42;95396.16;5095448;28;20984;-77
2022/10/26 05:28:17;;;;;;;12.63;6.33;;;;;;;17.12;66.89;95399.06;5113027;28;20796;-77
2022/10/26 05:30:45;;;;;;;11.30;6.17;;;;;;;17.59;64.43;95407.38;5104795;28;20925;-77
2022/10/26 05:33:14;;;;;;;18.27;6.33;;;;;;;18.13;62.98;95404.41;5112960;28;20447;-77
2022/10/26 05:35:41;;;;;;;18.80;6.97;;;;;;;18.65;61.07;95410.31;5112674;28;20455;-77
2022/10/26 05:38:08;;;;;;;13.97;5.50;;;;;;;19.11;59.92;95410.59;5060549;28;20455;-77
2022/10/26 05:40:37;;;;;;;13.57;5.40;;;;;;;19.52;57.98;95415.78;5112665;28;20806;-77
2022/10/26 05:43:04;;;;;;;9.57;5.43;;;;;;;19.80;56.74;95420.53;5093715;28;20501;-78
2022/10/26 05:45:31;;;;;;;9.83;5.33;;;;;;;20.08;55.87;95414.72;5112510;28;20442;-77
2022/10/26 05:47:58;;;;;;;14.33;6.40;;;;;;;20.30;54.87;95419.25;5112645;28;20454;-77
2022/10/26 05:50:24;;;;;;;9.27;5.37;;;;;;;20.37;54.31;95414.88;5112840;28;20447;-78
2022/10/26 05:52:51;;;;;;;10.87;6.77;;;;;;;20.48;54.44;95426.16;5112898;28;20474;-78
2022/10/26 05:55:19;;;;;;;13.80;5.77;;;;;;;20.64;53.46;95426.88;5113100;28;20438;-77
2022/10/26 05:57:48;;;;;;;10.73;5.97;;;;;;;20.90;53.21;95431.81;5059811;28;20535;-77
2022/10/26 06:00:20;;;;;;;9.33;6.83;;;;;;;21.03;52.63;95431.19;5112594;28;20933;-78
2022/10/26 06:03:07;;;;;;;9.47;5.23;;;;;;;21.07;52.76;95437.81;5112575;28;20493;-77
2022/10/26 06:05:38;;;;;;;9.60;5.70;;;;;;;21.25;52.52;95440.19;5112390;28;20438;-77
2022/10/26 06:08:10;;;;;;;12.60;5.50;;;;;;;21.29;51.93;95446.81;5112664;28;20482;-77
2022/10/26 06:10:37;;;;;;;12.07;5.13;;;;;;;21.29;52.43;95442.31;5112340;28;20538;-77
2022/10/26 06:13:06;;;;;;;11.50;6.17;;;;;;;21.13;52.59;95447.78;5112413;28;21005;-78
2022/10/26 06:15:44;;;;;;;10.17;6.23;;;;;;;21.20;53.39;95451.38;5112439;28;20450;-78
2022/10/26 06:18:23;;;;;;;9.40;6.10;;;;;;;21.20;53.31;95446.06;5076353;28;20443;-77
2022/10/26 06:21:02;;;;;;;20.23;6.30;;;;;;;21.22;53.39;95440.53;5112203;28;20447;-77
2022/10/26 06:23:52;;;;;;;10.63;6.00;;;;;;;21.31;53.25;95450.13;5112512;28;20482;-78
2022/10/26 06:26:28;;;;;;;6.80;6.00;;;;;;;21.36;52.76;95447.75;5112232;28;20451;-78
2022/10/26 06:29:05;;;;;;;13.17;6.63;;;;;;;21.44;52.89;95455.69;5112206;28;20438;-77
2022/10/26 06:31:32;;;;;;;9.13;5.90;;;;;;;21.48;52.51;95458.81;5112002;28;20505;-77
2022/10/26 06:34:00;;;;;;;7.10;4.70;;;;;;;21.52;52.91;95452.94;5112350;28;20451;-77
2022/10/26 06:36:28;;;;;;;14.03;4.73;;;;;;;21.40;52.59;95454.41;5112298;28;20454;-77
2022/10/26 06:38:59;;;;;;;12.60;5.40;;;;;;;21.39;53.23;95451.88;5112631;28;20447;-78
2022/10/26 06:41:27;;;;;;;16.37;5.63;;;;;;;21.44;53.66;95458.38;5112663;28;20439;-77
2022/10/26 06:43:54;;;;;;;9.50;6.10;;;;;;;21.51;53.23;95453.94;5116051;28;20493;-77
2022/10/26 06:46:34;;;;;;;7.30;5.70;;;;;;;21.59;53.71;95459.19;5116180;28;20439;-77
2022/10/26 06:49:11;;;;;;;12.70;5.40;;;;;;;21.65;53.63;95452.28;5115992;28;20446;-77
2022/10/26 06:51:43;;;;;;;11.10;5.53;;;;;;;21.67;53.62;95460.94;5115766;28;20442;-77
2022/10/26 06:54:18;;;;;;;10.93;7.40;;;;;;;21.61;53.98;95465.16;5115808;28;20534;-77
2022/10/26 06:56:46;;;;;;;16.00;6.83;;;;;;;21.46;54.60;95459.00;5115983;28;20442;-78
2022/10/26 06:59:18;;;;;;;17.60;8.27;;;;;;;21.43;55.39;95464.72;5115826;28;20442;-77
2022/10/26 07:01:46;;;;;;;16.87;7.43;;;;;;;21.36;55.64;95462.94;5115705;28;20446;-77
2022/10/26 07:04:13;;;;;;;11.87;7.87;;;;;;;21.26;56.55;95465.88;5115616;28;20489;-78
2022/10/26 07:06:40;;;;;;;16.13;8.47;;;;;;;21.14;56.94;95465.47;5079613;28;20434;-77
2022/10/26 07:09:06;;;;;;;14.90;7.90;;;;;;;20.90;57.76;95458.50;5115882;28;20443;-78
2022/10/26 07:11:33;;;;;;;16.50;8.47;;;;;;;20.60;58.72;95462.06;5115928;28;20500;-77
2022/10/26 07:14:00;;;;;;;13.77;7.30;;;;;;;20.51;59.74;95469.28;5115700;28;20454;-77
2022/10/26 07:16:27;;;;;;;22.90;8.20;;;;;;;20.41;60.18;95464.19;5115725;28;20452;-77
2022/10/26 07:18:56;;;;;;;13.83;9.63;;;;;;;20.21;60.77;95467.44;5115531;28;20445;-77
2022/10/26 07:21:22;;;;;;;27.67;9.53;;;;;;;19.93;62.11;95467.06;5115487;28;20439;-78
2022/10/26 07:23:49;;;;;;;26.10;11.27;;;;;;;19.60;63.38;95469.84;5115481;28;20482;-77
2022/10/26 07:26:16;;;;;;;17.17;8.87;;;;;;;19.49;63.98;95468.38;5115369;28;20446;-77
2022/10/26 07:28:43;;;;;;;13.63;7.80;;;;;;;19.39;65.05;95466.91;5115548;28;20442;-77
2022/10/26 07:31:09;;;;;;;16.77;9.03;;;;;;;19.21;65.42;95464.44;5115287;28;20443;-77
2022/10/26 07:33:36;;;;;;;20.07;10.27;;;;;;;19.01;66.08;95463.13;5115002;28;20447;-77
2022/10/26 07:36:07;;;;;;;18.53;10.57;;;;;;;18.87;66.08;95462.81;5114991;28;20474;-77
2022/10/26 07:38:34;;;;;;;25.17;10.50;;;;;;;18.84;66.47;95452.50;5061976;28;20860;-77
2022/10/26 07:41:01;;;;;;;22.43;10.20;;;;;;;18.87;68.39;95449.53;5114974;28;20439;-78
2022/10/26 07:43:28;;;;;;;19.30;10.70;;;;;;;18.82;67.04;95461.66;5115072;28;20478;-77
2022/10/26 07:45:55;;;;;;;25.37;11.00;;;;;;;18.86;67.16;95455.00;5114571;28;20443;-78
2022/10/26 07:48:22;;;;;;;17.10;10.40;;;;;;;18.95;67.22;95453.16;5114531;28;20454;-78
2022/10/26 07:50:49;;;;;;;17.60;10.40;;;;;;;18.95;67.21;95447.84;5114568;28;20458;-78
2022/10/26 07:53:17;;;;;;;23.07;11.10;;;;;;;19.04;66.88;95446.81;5113918;28;20478;-77
2022/10/26 07:55:43;;;;;;;21.23;11.87;;;;;;;19.16;66.63;95449.00;5114691;28;20439;-77
2022/10/26 07:58:10;;;;;;;18.43;10.17;;;;;;;19.18;66.46;95451.47;5114534;28;20454;-78
2022/10/26 08:00:37;;;;;;;22.33;10.47;;;;;;;19.27;66.76;95454.94;5114633;28;20439;-77
2022/10/26 08:03:04;;;;;;;21.43;10.70;;;;;;;19.38;66.35;95447.44;5114575;28;20489;-77
2022/10/26 08:05:30;;;;;;;14.13;8.00;;;;;;;19.40;66.35;95448.09;5114642;28;20451;-78
2022/10/26 08:07:57;;;;;;;13.17;7.60;;;;;;;19.44;66.44;95451.25;5114553;28;21002;-77
2022/10/26 08:10:28;;;;;;;31.37;11.80;;;;;;;19.48;66.10;95448.06;5114002;28;20853;-77
2022/10/26 08:12:55;;;;;;;19.00;10.20;;;;;;;19.58;65.81;95439.91;5114443;28;20439;-77
2022/10/26 08:15:21;;;;;;;27.30;10.30;;;;;;;19.67;65.79;95438.06;5114634;28;20447;-77
2022/10/26 08:17:48;;;;;;;9.57;6.40;;;;;;;19.64;65.15;95449.03;5061791;28;20462;-78
2022/10/26 08:20:15;;;;;;;11.17;7.10;;;;;;;19.68;65.05;95445.06;5114035;28;20933;-77
2022/10/26 08:22:42;;;;;;;39.47;19.00;;;;;;;19.86;64.76;95450.13;5113946;28;20447;-78
2022/10/26 08:25:09;;;;;;;12.03;8.20;;;;;;;19.99;64.05;95445.09;5114279;28;20486;-77
2022/10/26 08:27:37;;;;;;;14.37;6.63;;;;;;;20.19;64.14;95446.28;5114573;28;20439;-77
2022/10/26 08:30:04;;;;;;;9.50;6.13;;;;;;;20.46;62.35;95442.31;5114223;28;20450;-77
2022/10/26 08:32:31;;;;;;;8.63;6.47;;;;;;;20.65;60.44;95441.03;5113942;28;20445;-76
2022/10/26 08:34:58;;;;;;;7.10;4.97;;;;;;;20.80;60.26;95433.88;5114001;28;20798;-77
2022/10/26 08:37:26;;;;;;;11.63;5.60;;;;;;;20.94;60.39;95441.13;5113812;28;20454;-76
2022/10/26 08:39:53;;;;;;;6.60;4.90;;;;;;;21.11;58.39;95440.97;5113760;28;20504;-77
2022/10/26 08:42:26;;;;;;;11.63;5.17;;;;;;;21.27;58.51;95441.66;5113899;28;20466;-77
2022/10/26 08:44:59;;;;;;;14.27;6.07;;;;;;;21.48;57.68;95440.97;5113701;28;20490;-76
2022/10/26 08:47:31;;;;;;;6.63;5.20;;;;;;;21.58;57.31;95441.50;5077495;28;20523;-77
2022/10/26 08:50:01;;;;;;;7.33;5.43;;;;;;;21.44;56.29;95439.66;5113597;28;20492;-77
2022/10/26 08:52:36;;;;;;;10.13;5.10;;;;;;;21.36;55.70;95447.75;5113574;28;20476;-77
2022/10/26 08:55:04;;;;;;;6.00;5.40;;;;;;;21.43;56.26;95443.34;5113694;28;20446;-77
2022/10/26 08:57:36;;;;;;;11.03;4.77;;;;;;;21.42;57.27;95452.38;5113274;28;20457;-77
2022/10/26 09:00:06;;;;;;;9.00;4.67;;;;;;;21.60;56.19;95455.50;5113276;28;20452;-77
2022/10/26 09:02:33;;;;;;;5.10;3.97;;;;;;;21.66;54.79;95453.94;5113154;28;20435;-77
2022/10/26 09:05:01;;;;;;;5.50;4.37;;;;;;;21.76;53.74;95443.81;5077391;28;20544;-77
2022/10/26 09:07:49;;;;;;;10.97;5.27;;;;;;;21.85;53.56;95447.19;5113147;28;20499;-77
2022/10/26 09:10:38;;;;;;;13.20;4.40;;;;;;;21.80;53.76;95454.94;5113204;28;20447;-77
2022/10/26 09:13:11;;;;;;;12.97;4.57;;;;;;;21.83;53.46;95442.03;5030263;28;20447;-77
2022/10/26 09:15:53;;;;;;;4.93;4.20;;;;;;;21.92;51.73;95443.59;5030253;28;20496;-77
2022/10/26 09:18:34;;;;;;;4.20;2.87;;;;;;;21.88;51.03;95446.81;5030441;28;20442;-77
2022/10/26 09:21:16;;;;;;;4.23;3.60;;;;;;;21.64;50.28;95445.28;5030278;28;20457;-77
2022/10/26 09:24:07;;;;;;;9.77;5.23;;;;;;;21.59;52.48;95440.50;5030453;28;20490;-77
2022/10/26 09:26:41;;;;;;;5.63;3.60;;;;;;;21.51;51.73;95440.59;4971194;28;20457;-78
2022/10/26 09:29:14;;;;;;;5.47;3.53;;;;;;;21.46;50.79;95442.16;4971542;28;20440;-77
2022/10/26 09:31:45;;;;;;;4.03;3.53;;;;;;;21.41;52.79;95440.03;4971327;28;20865;-77
2022/10/26 09:34:21;;;;;;;9.03;4.37;;;;;;;21.54;52.59;95445.56;4971137;28;20442;-77
2022/10/26 09:36:53;;;;;;;5.87;3.80;;;;;;;21.46;50.59;95445.66;4971134;28;20441;-77
2022/10/26 09:39:26;;;;;;;5.73;4.37;;;;;;;21.57;51.82;95444.34;4971367;28;20449;-77
2022/10/26 09:41:57;;;;;;;5.17;4.60;;;;;;;21.59;51.65;95437.81;4971422;28;20504;-77
2022/10/26 09:44:28;;;;;;;8.13;3.50;;;;;;;21.65;52.24;95436.25;4971216;28;20492;-77
2022/10/26 09:47:03;;;;;;;8.00;3.70;;;;;;;21.66;51.25;95443.25;4971036;28;20998;-77
2022/10/26 09:49:41;;;;;;;6.07;3.30;;;;;;;21.63;50.36;95436.44;4984770;28;20446;-77
2022/10/26 09:52:08;;;;;;;9.10;3.03;;;;;;;21.69;51.01;95436.72;5049519;28;20561;-77
2022/10/26 09:54:35;;;;;;;4.53;3.67;;;;;;;21.74;50.26;95434.31;5049464;28;20450;-77
2022/10/26 09:57:04;;;;;;;10.00;3.63;;;;;;;21.64;51.13;95432.75;5049671;28;20445;-78
2022/10/26 09:59:35;;;;;;;6.63;3.63;;;;;;;21.72;51.68;95436.34;5016599;28;20438;-78
2022/10/26 10:02:29;;;;;;;5.23;3.80;;;;;;;21.77;51.77;95425.94;5049551;28;20499;-77
2022/10/26 10:04:56;;;;;;;6.90;4.30;;;;;;;21.87;51.35;95423.78;5065887;28;20483;-77
2022/10/26 10:07:23;;;;;;;12.23;4.67;;;;;;;21.95;50.88;95423.69;5112340;28;20443;-77
2022/10/26 10:10:07;;;;;;;11.50;5.00;;;;;;;22.00;51.33;95412.47;5112369;28;20823;-77
2022/10/26 10:12:33;;;;;;;6.50;4.23;;;;;;;22.05;50.12;95416.25;5112351;28;20857;-77
2022/10/26 10:15:00;;;;;;;10.87;5.13;;;;;;;21.97;50.48;95410.97;5112422;28;20988;-77
2022/10/26 10:17:28;;;;;;;5.53;4.07;;;;;;;21.93;51.07;95407.84;5114734;28;20454;-77
2022/10/26 10:20:11;;;;;;;4.37;3.73;;;;;;;21.98;51.41;95411.81;5080811;28;20846;-77
2022/10/26 10:22:56;;;;;;;5.60;3.90;;;;;;;21.96;50.61;95406.63;5081278;28;20533;-78
2022/10/26 10:25:33;;;;;;;6.40;4.13;;;;;;;21.92;50.68;95405.34;5116743;28;20505;-78
2022/10/26 10:27:59;;;;;;;5.30;3.70;;;;;;;21.94;51.34;95406.81;5116960;28;20477;-77
2022/10/26 10:30:30;;;;;;;5.83;3.57;;;;;;;21.98;50.15;95398.44;5116818;28;20446;-78
2022/10/26 10:33:10;;;;;;;3.70;3.40;;;;;;;22.00;49.93;95397.25;5116697;28;20488;-77
2022/10/26 10:35:40;;;;;;;7.57;3.83;;;;;;;21.98;50.15;95379.75;5116736;28;20458;-77
2022/10/26 10:38:13;;;;;;;6.33;4.03;;;;;;;21.88;50.47;95394.22;5116895;28;20466;-77
2022/10/26 10:40:39;;;;;;;4.77;4.00;;;;;;;21.81;50.82;95395.16;5116655;28;20446;-77
2022/10/26 10:43:13;;;;;;;6.90;4.00;;;;;;;21.72;50.13;95389.09;5116578;28;20898;-77
2022/10/26 10:45:41;;;;;;;11.03;3.57;;;;;;;21.71;50.81;95389.28;5116304;28;20536;-77
2022/10/26 10:48:16;;;;;;;5.83;3.77;;;;;;;21.75;50.52;95390.56;5116803;28;20454;-77
2022/10/26 10:50:53;;;;;;;4.67;3.33;;;;;;;21.82;51.70;95383.44;5116695;28;20476;-77
2022/10/26 10:53:24;;;;;;;4.07;3.53;;;;;;;21.82;50.25;95378.94;5116428;28;20557;-78
2022/10/26 10:56:20;;;;;;;6.63;3.60;;;;;;;21.90;51.43;95376.16;5116009;28;20447;-78
2022/10/26 10:58:59;;;;;;;5.60;4.30;;;;;;;21.99;50.63;95374.22;5033033;28;21090;-77
2022/10/26 11:01:32;;;;;;;4.13;3.50;;;;;;;22.09;50.12;95374.75;5033580;28;20500;-78
2022/10/26 11:04:24;;;;;;;8.80;3.50;;;;;;;22.14;50.74;95369.66;5033218;28;20450;-78
2022/10/26 11:06:54;;;;;;;13.20;3.73;;;;;;;22.09;49.44;95363.25;5033395;28;20451;-78
2022/10/26 11:09:27;;;;;;;3.33;2.93;;;;;;;22.04;49.60;95361.13;5032993;28;20497;-80
2022/10/26 11:11:57;;;;;;;7.57;3.50;;;;;;;22.03;50.48;95359.44;5033057;28;20501;-77
2022/10/26 11:14:28;;;;;;;5.57;3.07;;;;;;;22.06;49.70;95363.63;5033170;28;20446;-78
2022/10/26 11:17:04;;;;;;;12.50;3.70;;;;;;;22.04;49.97;95361.13;5033151;28;20512;-79
2022/10/26 11:19:36;;;;;;;3.90;3.40;;;;;;;22.09;50.27;95358.72;5033078;28;20456;-78
2022/10/26 11:22:06;;;;;;;5.67;3.03;;;;;;;22.07;50.04;95354.59;5033041;28;20450;-78
2022/10/26 11:24:39;;;;;;;11.93;3.10;;;;;;;22.13;50.57;95353.81;5033209;28;20493;-79
2022/10/26 11:27:15;;;;;;;3.27;2.80;;;;;;;22.20;50.73;95350.19;5032839;28;20496;-79
2022/10/26 11:29:50;;;;;;;5.97;3.37;;;;;;;22.32;50.11;95353.19;5031777;28;20446;-79
2022/10/26 11:32:22;;;;;;;7.43;4.93;;;;;;;22.29;50.30;95347.41;5032722;28;20461;-77
2022/10/26 11:34:57;;;;;;;12.23;4.70;;;;;;;22.30;50.21;95349.06;5039520;28;20450;-78
2022/10/26 11:37:30;;;;;;;7.13;3.90;;;;;;;22.29;50.75;95352.75;5115474;28;20450;-78
2022/10/26 11:40:14;;;;;;;7.93;3.90;;;;;;;22.32;51.23;95345.19;5115590;28;20443;-79
2022/10/26 11:42:48;;;;;;;12.07;4.33;;;;;;;22.22;50.21;95347.31;5115470;28;20451;-78